Time;durP1;ratioP1;P1;durP2;ratioP2;P2;SDS_P1;SDS_P2;PMS_P1;PMS_P2;Temp;Humidity;BMP_temperature;BMP_pressure;BME280_temperature;BME280_humidity;BME280_pressure;Samples;Min_cycle;Max_cycle;Signal;HPM_P1;HPM_P2
2023/01/15 00:01:02;;;;;;;0.30;0.30;;;;;;;;;;5058870;28;20393;-67
2023/01/15 00:03:29;;;;;;;0.40;0.40;;;;;;;;;;5056832;28;22768;-67
2023/01/15 00:05:55;;;;;;;0.40;0.40;;;;;;;;;;5065272;28;20217;-67
2023/01/15 00:08:22;;;;;;;0.30;0.30;;;;;;;;;;5067438;28;20566;-67
2023/01/15 00:10:48;;;;;;;0.40;0.20;;;;;;;;;;5076429;28;20219;-67
2023/01/15 00:13:14;;;;;;;0.30;0.30;;;;;;;;;;5076389;28;20262;-67
2023/01/15 00:15:42;;;;;;;0.95;0.40;;;;;;;;;;5072347;28;20231;-67
2023/01/15 00:18:08;;;;;;;0.30;0.30;;;;;;;;;;5070851;28;20212;-68
2023/01/15 00:20:34;;;;;;;0.30;0.30;;;;;;;;;;5069371;28;20535;-68
2023/01/15 00:23:01;;;;;;;0.30;0.30;;;;;;;;;;5075944;28;20216;-67
2023/01/15 00:28:12;;;;;;;0.38;0.38;;;;;;;;;;5074207;28;20238;-68
2023/01/15 00:30:39;;;;;;;0.70;0.65;;;;;;;;;;5080929;28;20197;-67
2023/01/15 00:33:07;;;;;;;1.33;0.40;;;;;;;;;;5075434;28;20211;-67
2023/01/15 00:35:33;;;;;;;0.95;0.40;;;;;;;;;;5077513;28;20196;-68
2023/01/15 00:38:00;;;;;;;0.63;0.30;;;;;;;;;;5077910;28;20215;-68
2023/01/15 00:40:26;;;;;;;0.47;0.30;;;;;;;;;;5077530;28;20211;-68
2023/01/15 00:42:52;;;;;;;0.20;0.20;;;;;;;;;;5077712;28;20200;-68
2023/01/15 00:45:18;;;;;;;0.85;0.60;;;;;;;;;;5076117;28;20200;-68
2023/01/15 00:47:46;;;;;;;1.45;0.60;;;;;;;;;;5073757;28;20224;-68
2023/01/15 00:50:15;;;;;;;0.30;0.30;;;;;;;;;;5073900;28;20240;-68
2023/01/15 00:52:41;;;;;;;0.30;0.30;;;;;;;;;;5077434;28;20549;-68
2023/01/15 00:55:08;;;;;;;0.30;0.30;;;;;;;;;;5077283;28;20401;-68
2023/01/15 00:57:35;;;;;;;0.30;0.30;;;;;;;;;;5068904;28;20192;-68
2023/01/15 01:00:01;;;;;;;0.30;0.30;;;;;;;;;;5076907;28;20196;-68
2023/01/15 01:02:27;;;;;;;0.57;0.50;;;;;;;;;;5074476;28;20197;-68
2023/01/15 01:04:54;;;;;;;0.30;0.30;;;;;;;;;;5074011;28;20390;-68
2023/01/15 01:07:21;;;;;;;0.60;0.30;;;;;;;;;;5075135;28;20224;-68
2023/01/15 01:09:48;;;;;;;0.30;0.30;;;;;;;;;;5077069;28;20550;-68
2023/01/15 01:12:14;;;;;;;0.32;0.32;;;;;;;;;;5075986;28;20437;-68
2023/01/15 01:14:41;;;;;;;0.38;0.30;;;;;;;;;;5069476;28;20206;-68
2023/01/15 01:17:08;;;;;;;0.20;0.20;;;;;;;;;;5076875;28;20496;-68
2023/01/15 01:19:36;;;;;;;0.47;0.40;;;;;;;;;;5073465;28;20360;-68
2023/01/15 01:22:02;;;;;;;0.20;0.20;;;;;;;;;;5073192;28;20197;-68
2023/01/15 01:24:30;;;;;;;0.10;0.10;;;;;;;;;;5075851;28;20205;-68
2023/01/15 01:26:56;;;;;;;0.20;0.20;;;;;;;;;;5076604;28;20280;-68
2023/01/15 01:29:23;;;;;;;0.25;0.20;;;;;;;;;;5074810;28;20227;-68
2023/01/15 01:31:50;;;;;;;0.20;0.20;;;;;;;;;;5072766;28;20236;-68
2023/01/15 01:34:16;;;;;;;0.40;0.30;;;;;;;;;;5073985;28;20216;-68
2023/01/15 01:36:43;;;;;;;0.13;0.13;;;;;;;;;;5076644;28;20192;-68
2023/01/15 01:39:12;;;;;;;0.28;0.28;;;;;;;;;;5076549;28;20200;-68
2023/01/15 01:41:39;;;;;;;0.50;0.28;;;;;;;;;;5072903;28;20505;-68
2023/01/15 01:44:07;;;;;;;0.22;0.22;;;;;;;;;;5071831;28;20669;-68
2023/01/15 01:46:35;;;;;;;0.45;0.45;;;;;;;;;;5076053;28;20314;-68
2023/01/15 01:49:02;;;;;;;0.40;0.40;;;;;;;;;;5076248;28;20200;-68
2023/01/15 01:51:31;;;;;;;0.20;0.20;;;;;;;;;;5076232;28;20207;-68
2023/01/15 01:53:58;;;;;;;0.22;0.22;;;;;;;;;;5076152;28;20196;-68
2023/01/15 01:56:24;;;;;;;0.30;0.30;;;;;;;;;;5074077;28;20201;-68
2023/01/15 01:58:54;;;;;;;1.10;0.40;;;;;;;;;;5072723;28;20205;-68
2023/01/15 02:01:20;;;;;;;0.55;0.55;;;;;;;;;;5073753;28;20209;-68
2023/01/15 02:03:46;;;;;;;0.20;0.20;;;;;;;;;;5076000;28;20202;-68
2023/01/15 02:06:14;;;;;;;0.20;0.20;;;;;;;;;;5075720;28;20268;-68
2023/01/15 02:08:40;;;;;;;0.60;0.20;;;;;;;;;;5072280;28;20229;-68
2023/01/15 02:11:07;;;;;;;0.17;0.17;;;;;;;;;;5071956;28;20204;-68
2023/01/15 02:13:36;;;;;;;0.22;0.22;;;;;;;;;;5075240;28;20400;-68
2023/01/15 02:16:06;;;;;;;0.50;0.30;;;;;;;;;;5075718;28;20200;-68
2023/01/15 02:18:36;;;;;;;0.20;0.20;;;;;;;;;;5072427;28;20193;-68
2023/01/15 02:21:06;;;;;;;0.20;0.20;;;;;;;;;;5072129;28;20200;-68
2023/01/15 02:23:56;;;;;;;0.30;0.20;;;;;;;;;;5072099;28;20450;-68
2023/01/15 02:26:41;;;;;;;0.20;0.20;;;;;;;;;;5063028;28;20201;-68
2023/01/15 02:29:10;;;;;;;0.30;0.30;;;;;;;;;;5075455;28;20223;-68
2023/01/15 02:31:38;;;;;;;0.32;0.32;;;;;;;;;;5067165;28;20196;-68
2023/01/15 02:34:06;;;;;;;0.28;0.20;;;;;;;;;;5075237;28;20258;-68
2023/01/15 02:36:33;;;;;;;0.10;0.10;;;;;;;;;;5072545;28;20220;-68
2023/01/15 02:39:01;;;;;;;0.60;0.20;;;;;;;;;;5071940;28;20205;-68
2023/01/15 02:41:31;;;;;;;0.28;0.28;;;;;;;;;;5079874;28;20443;-68
2023/01/15 02:43:58;;;;;;;0.13;0.13;;;;;;;;;;5071425;28;20197;-68
2023/01/15 02:46:27;;;;;;;0.10;0.10;;;;;;;;;;5073446;28;20205;-68
2023/01/15 02:48:55;;;;;;;0.25;0.25;;;;;;;;;;5075116;28;20205;-68
2023/01/15 02:51:23;;;;;;;0.20;0.20;;;;;;;;;;5073458;28;20200;-68
2023/01/15 02:53:51;;;;;;;0.20;0.20;;;;;;;;;;5071675;28;20438;-68
2023/01/15 02:56:22;;;;;;;0.32;0.20;;;;;;;;;;5072331;28;20235;-68
2023/01/15 02:58:49;;;;;;;0.20;0.20;;;;;;;;;;5074947;28;20204;-68
2023/01/15 03:01:18;;;;;;;0.20;0.20;;;;;;;;;;5073943;28;20200;-68
2023/01/15 03:03:47;;;;;;;0.20;0.20;;;;;;;;;;5071444;28;20323;-68
2023/01/15 03:06:15;;;;;;;0.28;0.20;;;;;;;;;;5071599;28;20208;-68
2023/01/15 03:08:41;;;;;;;1.20;0.20;;;;;;;;;;5074538;28;20216;-68
2023/01/15 03:11:09;;;;;;;0.20;0.20;;;;;;;;;;5074867;28;20207;-68
2023/01/15 03:13:39;;;;;;;0.52;0.20;;;;;;;;;;5071311;28;20197;-68
2023/01/15 03:18:56;;;;;;;0.10;0.10;;;;;;;;;;5071248;28;20447;-68
2023/01/15 03:21:27;;;;;;;0.20;0.20;;;;;;;;;;5072698;28;20216;-68
2023/01/15 03:23:54;;;;;;;0.20;0.20;;;;;;;;;;5074460;28;20200;-68
2023/01/15 03:26:21;;;;;;;0.20;0.20;;;;;;;;;;5073051;28;20208;-68
2023/01/15 03:28:47;;;;;;;0.10;0.10;;;;;;;;;;5070740;28;20228;-68
2023/01/15 03:31:14;;;;;;;0.10;0.10;;;;;;;;;;5070734;28;20213;-68
2023/01/15 03:33:40;;;;;;;0.10;0.10;;;;;;;;;;5074032;28;20227;-68
2023/01/15 03:36:09;;;;;;;0.32;0.20;;;;;;;;;;5074339;28;20428;-68
2023/01/15 03:38:37;;;;;;;0.82;0.20;;;;;;;;;;5070707;28;20219;-68
2023/01/15 03:41:12;;;;;;;0.10;0.10;;;;;;;;;;5070436;28;20427;-68
2023/01/15 03:43:42;;;;;;;0.10;0.10;;;;;;;;;;5070518;28;20196;-68
2023/01/15 03:46:12;;;;;;;0.20;0.13;;;;;;;;;;5070551;28;20492;-68
2023/01/15 03:48:41;;;;;;;0.22;0.15;;;;;;;;;;5070644;28;20221;-68
2023/01/15 03:51:12;;;;;;;0.22;0.20;;;;;;;;;;5070408;28;20277;-68
2023/01/15 03:53:40;;;;;;;0.20;0.20;;;;;;;;;;5070648;28;20500;-68
2023/01/15 03:56:10;;;;;;;1.02;0.20;;;;;;;;;;5070389;28;20542;-68
2023/01/15 03:58:39;;;;;;;0.28;0.28;;;;;;;;;;5078616;28;20192;-68
2023/01/15 04:01:08;;;;;;;0.20;0.20;;;;;;;;;;5070537;28;20523;-68
2023/01/15 04:03:35;;;;;;;0.73;0.20;;;;;;;;;;5070445;28;20207;-66
2023/01/15 04:06:01;;;;;;;0.20;0.20;;;;;;;;;;5070497;28;20197;-66
2023/01/15 04:08:31;;;;;;;0.20;0.20;;;;;;;;;;5071891;28;20229;-66
2023/01/15 04:10:58;;;;;;;0.20;0.20;;;;;;;;;;5075614;28;20200;-66
2023/01/15 04:13:25;;;;;;;0.20;0.20;;;;;;;;;;5071683;28;20208;-66
2023/01/15 04:15:51;;;;;;;0.20;0.20;;;;;;;;;;5073717;28;20504;-66
2023/01/15 04:18:17;;;;;;;0.20;0.20;;;;;;;;;;5072837;28;20504;-66
2023/01/15 04:20:44;;;;;;;0.35;0.13;;;;;;;;;;5070060;28;20196;-66
2023/01/15 04:23:10;;;;;;;0.20;0.20;;;;;;;;;;5070023;28;20204;-66
2023/01/15 04:25:39;;;;;;;0.10;0.10;;;;;;;;;;5073309;28;20197;-66
2023/01/15 04:28:06;;;;;;;0.30;0.30;;;;;;;;;;5073359;28;20220;-66
2023/01/15 04:30:32;;;;;;;0.20;0.20;;;;;;;;;;5070592;28;20205;-66
2023/01/15 04:32:58;;;;;;;0.20;0.20;;;;;;;;;;5070183;28;20246;-68
2023/01/15 04:35:24;;;;;;;0.10;0.10;;;;;;;;;;5071809;28;20399;-67
2023/01/15 04:37:54;;;;;;;0.10;0.10;;;;;;;;;;5073566;28;20216;-67
2023/01/15 04:45:46;;;;;;;0.20;0.17;;;;;;;;;;5070050;28;20484;-67
2023/01/15 04:48:12;;;;;;;0.10;0.10;;;;;;;;;;5069849;28;20387;-67
2023/01/15 04:50:38;;;;;;;0.10;0.10;;;;;;;;;;5064830;28;20204;-67
2023/01/15 04:53:05;;;;;;;0.20;0.20;;;;;;;;;;5073308;28;20233;-67
2023/01/15 04:55:31;;;;;;;0.10;0.10;;;;;;;;;;5070823;28;20267;-67
2023/01/15 04:57:57;;;;;;;0.20;0.20;;;;;;;;;;5069927;28;20208;-67
2023/01/15 05:00:25;;;;;;;0.10;0.10;;;;;;;;;;5070927;28;20208;-67
2023/01/15 05:02:51;;;;;;;0.20;0.20;;;;;;;;;;5073225;28;20391;-67
2023/01/15 05:05:17;;;;;;;0.20;0.20;;;;;;;;;;5072307;28;20201;-67
2023/01/15 05:07:44;;;;;;;0.10;0.10;;;;;;;;;;5074585;28;20394;-67
2023/01/15 05:10:10;;;;;;;0.20;0.17;;;;;;;;;;5073048;28;20204;-67
2023/01/15 05:12:37;;;;;;;0.10;0.10;;;;;;;;;;5069729;28;20391;-67
2023/01/15 05:15:03;;;;;;;0.20;0.10;;;;;;;;;;5069700;28;20201;-67
2023/01/15 05:17:31;;;;;;;0.17;0.17;;;;;;;;;;5071964;28;20208;-67
2023/01/15 05:19:57;;;;;;;0.20;0.20;;;;;;;;;;5075141;28;20219;-67
2023/01/15 05:22:24;;;;;;;0.52;0.52;;;;;;;;;;5075067;28;20208;-67
2023/01/15 05:24:50;;;;;;;0.88;0.20;;;;;;;;;;5073445;28;20286;-67
2023/01/15 05:27:17;;;;;;;0.98;0.82;;;;;;;;;;5073672;28;20201;-67
2023/01/15 05:29:43;;;;;;;0.68;0.17;;;;;;;;;;5076662;28;20200;-67
2023/01/15 05:32:09;;;;;;;0.20;0.20;;;;;;;;;;5077089;28;20538;-67
2023/01/15 05:34:37;;;;;;;0.20;0.20;;;;;;;;;;5073424;28;20424;-67
2023/01/15 05:37:03;;;;;;;0.22;0.22;;;;;;;;;;5073257;28;20201;-67
2023/01/15 05:39:29;;;;;;;0.20;0.20;;;;;;;;;;5075371;28;20201;-67
2023/01/15 05:41:56;;;;;;;0.20;0.20;;;;;;;;;;5076423;28;20208;-67
2023/01/15 05:44:23;;;;;;;0.20;0.20;;;;;;;;;;5075137;28;20411;-67
2023/01/15 05:46:50;;;;;;;0.30;0.20;;;;;;;;;;5072634;28;20203;-67
2023/01/15 05:49:18;;;;;;;0.17;0.17;;;;;;;;;;5073168;28;20224;-67
2023/01/15 05:51:46;;;;;;;0.20;0.20;;;;;;;;;;5076461;28;20411;-66
2023/01/15 05:54:13;;;;;;;0.22;0.22;;;;;;;;;;5076429;28;20200;-66
2023/01/15 05:56:39;;;;;;;0.47;0.22;;;;;;;;;;5072734;28;20211;-66
2023/01/15 05:59:07;;;;;;;0.95;0.30;;;;;;;;;;5072506;28;20501;-66
2023/01/15 06:01:33;;;;;;;0.30;0.30;;;;;;;;;;5074864;28;20204;-66
2023/01/15 06:04:00;;;;;;;1.65;0.30;;;;;;;;;;5076306;28;20203;-66
2023/01/15 06:06:26;;;;;;;0.50;0.25;;;;;;;;;;5074251;28;20211;-66
2023/01/15 06:08:54;;;;;;;0.22;0.22;;;;;;;;;;5072425;28;20220;-66
2023/01/15 06:11:20;;;;;;;0.45;0.30;;;;;;;;;;5073390;28;20201;-66
2023/01/15 06:13:46;;;;;;;0.13;0.13;;;;;;;;;;5075835;28;20197;-66
2023/01/15 06:16:13;;;;;;;0.30;0.30;;;;;;;;;;5075605;28;20430;-66
2023/01/15 06:18:39;;;;;;;0.40;0.40;;;;;;;;;;5064040;28;20205;-66
2023/01/15 06:21:07;;;;;;;0.45;0.43;;;;;;;;;;5072057;28;20213;-66
2023/01/15 06:23:35;;;;;;;0.30;0.30;;;;;;;;;;5074771;28;20523;-67
2023/01/15 06:26:03;;;;;;;0.30;0.30;;;;;;;;;;5075514;28;20200;-67
2023/01/15 06:28:29;;;;;;;0.30;0.30;;;;;;;;;;5073180;28;20446;-67
2023/01/15 06:30:56;;;;;;;0.30;0.30;;;;;;;;;;5071372;28;20197;-67
2023/01/15 06:33:22;;;;;;;0.20;0.20;;;;;;;;;;5073303;28;20247;-67
2023/01/15 06:35:48;;;;;;;0.30;0.30;;;;;;;;;;5075596;28;20227;-67
2023/01/15 06:38:15;;;;;;;0.47;0.47;;;;;;;;;;5075229;28;20203;-67
2023/01/15 06:40:41;;;;;;;0.40;0.40;;;;;;;;;;5071681;28;20504;-67
2023/01/15 06:48:46;;;;;;;0.20;0.20;;;;;;;;;;5063190;28;20235;-67
2023/01/15 06:51:14;;;;;;;0.20;0.20;;;;;;;;;;5071457;28;20200;-68
2023/01/15 06:53:40;;;;;;;0.20;0.20;;;;;;;;;;5079670;28;20373;-68
2023/01/15 06:56:07;;;;;;;0.20;0.20;;;;;;;;;;5071728;28;20240;-68
2023/01/15 06:58:34;;;;;;;0.30;0.30;;;;;;;;;;5071624;28;20204;-68
2023/01/15 07:01:01;;;;;;;0.20;0.20;;;;;;;;;;5071220;28;20197;-68
2023/01/15 07:03:27;;;;;;;0.30;0.30;;;;;;;;;;5073216;28;20528;-68
2023/01/15 07:05:53;;;;;;;0.17;0.17;;;;;;;;;;5074895;28;20492;-68
2023/01/15 07:08:19;;;;;;;0.30;0.30;;;;;;;;;;5073892;28;20220;-68
2023/01/15 07:10:46;;;;;;;0.30;0.30;;;;;;;;;;5071345;28;20204;-68
2023/01/15 07:13:12;;;;;;;1.98;0.20;;;;;;;;;;5071513;28;20201;-68
2023/01/15 07:15:40;;;;;;;0.30;0.30;;;;;;;;;;5074598;28;20205;-68
2023/01/15 07:18:06;;;;;;;0.30;0.30;;;;;;;;;;5074658;28;20201;-69
2023/01/15 07:20:32;;;;;;;0.50;0.50;;;;;;;;;;5071788;28;20207;-68
2023/01/15 07:22:58;;;;;;;0.52;0.40;;;;;;;;;;5071018;28;20201;-68
2023/01/15 07:25:25;;;;;;;0.85;0.30;;;;;;;;;;5072512;28;20430;-68
2023/01/15 07:27:51;;;;;;;0.30;0.30;;;;;;;;;;5074445;28;20216;-68
2023/01/15 07:30:17;;;;;;;1.65;0.47;;;;;;;;;;5073790;28;20522;-69
2023/01/15 07:32:45;;;;;;;0.20;0.20;;;;;;;;;;5070979;28;20196;-68
2023/01/15 07:35:11;;;;;;;0.30;0.30;;;;;;;;;;5070818;28;20247;-68
2023/01/15 07:37:38;;;;;;;0.30;0.30;;;;;;;;;;5074054;28;20208;-68
2023/01/15 07:40:05;;;;;;;0.38;0.38;;;;;;;;;;5074116;28;20263;-67
2023/01/15 07:50:41;;;;;;;0.20;0.20;;;;;;;;;;5040465;28;20263;-69
2023/01/15 07:53:07;;;;;;;0.30;0.30;;;;;;;;;;5074179;28;20200;-59
2023/01/15 07:55:35;;;;;;;0.30;0.30;;;;;;;;;;5071364;28;20550;-59
2023/01/15 07:58:02;;;;;;;0.20;0.20;;;;;;;;;;5070164;28;20205;-59
2023/01/15 08:00:28;;;;;;;0.50;0.50;;;;;;;;;;5070270;28;20217;-59
2023/01/15 08:02:54;;;;;;;0.52;0.52;;;;;;;;;;5070767;28;20197;-58
2023/01/15 08:05:22;;;;;;;0.38;0.38;;;;;;;;;;5071163;28;20208;-59
2023/01/15 08:07:49;;;;;;;0.30;0.30;;;;;;;;;;5073883;28;20227;-59
2023/01/15 08:10:15;;;;;;;0.20;0.20;;;;;;;;;;5073655;28;20565;-59
2023/01/15 08:15:26;;;;;;;0.40;0.40;;;;;;;;;;5071837;28;20562;-59
2023/01/15 08:17:52;;;;;;;0.20;0.20;;;;;;;;;;5073964;28;20204;-58
2023/01/15 08:20:20;;;;;;;0.30;0.30;;;;;;;;;;5073392;28;20196;-59
2023/01/15 08:22:47;;;;;;;0.50;0.50;;;;;;;;;;5070500;28;20519;-59
2023/01/15 08:25:15;;;;;;;2.10;1.77;;;;;;;;;;5070293;28;20500;-59
2023/01/15 08:27:42;;;;;;;1.77;1.15;;;;;;;;;;5070319;28;20225;-59
2023/01/15 08:30:11;;;;;;;1.17;1.17;;;;;;;;;;5069956;28;20517;-59
2023/01/15 08:32:37;;;;;;;0.55;0.55;;;;;;;;;;5072633;28;20196;-58
2023/01/15 08:35:04;;;;;;;0.50;0.50;;;;;;;;;;5073626;28;20196;-59
2023/01/15 08:37:30;;;;;;;0.70;0.52;;;;;;;;;;5071457;28;20211;-59
2023/01/15 08:39:58;;;;;;;0.40;0.40;;;;;;;;;;5070033;28;20235;-59
2023/01/15 08:42:24;;;;;;;0.20;0.20;;;;;;;;;;5071134;28;20209;-59
2023/01/15 08:44:50;;;;;;;0.30;0.30;;;;;;;;;;5073452;28;20212;-60
2023/01/15 08:47:17;;;;;;;0.45;0.45;;;;;;;;;;5073267;28;20504;-59
2023/01/15 08:49:44;;;;;;;0.40;0.40;;;;;;;;;;5070082;28;20221;-59
2023/01/15 08:52:10;;;;;;;0.40;0.40;;;;;;;;;;5069801;28;20205;-59
2023/01/15 08:54:36;;;;;;;0.52;0.52;;;;;;;;;;5075775;28;20660;-59
2023/01/15 08:57:04;;;;;;;0.43;0.43;;;;;;;;;;5077384;28;20199;-59
2023/01/15 08:59:30;;;;;;;0.20;0.20;;;;;;;;;;5075479;28;20209;-59
2023/01/15 09:01:57;;;;;;;0.30;0.30;;;;;;;;;;5073774;28;20259;-58
2023/01/15 09:04:23;;;;;;;0.13;0.13;;;;;;;;;;5074727;28;20208;-58
2023/01/15 09:06:49;;;;;;;0.45;0.28;;;;;;;;;;5081175;28;20205;-59
2023/01/15 09:09:17;;;;;;;0.30;0.30;;;;;;;;;;5073522;28;20217;-59
2023/01/15 09:11:44;;;;;;;0.25;0.25;;;;;;;;;;5073372;28;20235;-58
2023/01/15 09:14:12;;;;;;;0.35;0.35;;;;;;;;;;5073364;28;20205;-58
2023/01/15 09:16:38;;;;;;;0.25;0.25;;;;;;;;;;5076255;28;20197;-59
2023/01/15 09:19:06;;;;;;;2.20;0.40;;;;;;;;;;5076672;28;20200;-59
2023/01/15 09:21:32;;;;;;;0.40;0.40;;;;;;;;;;5074234;28;20200;-59
2023/01/15 09:23:58;;;;;;;0.43;0.40;;;;;;;;;;5072868;28;20201;-59
2023/01/15 09:26:29;;;;;;;0.30;0.30;;;;;;;;;;5074139;28;20216;-59
2023/01/15 09:28:55;;;;;;;1.23;0.22;;;;;;;;;;5076482;28;20248;-59
2023/01/15 09:31:24;;;;;;;0.57;0.57;;;;;;;;;;5075304;28;20566;-59
2023/01/15 09:33:51;;;;;;;1.77;0.30;;;;;;;;;;5072973;28;20501;-60
2023/01/15 09:36:18;;;;;;;0.22;0.22;;;;;;;;;;5072979;28;20205;-59
2023/01/15 09:38:44;;;;;;;0.40;0.40;;;;;;;;;;5076495;28;20472;-60
2023/01/15 09:42:04;;;;;;;0.30;0.30;;;;;;;;;;5076275;28;20379;-60
2023/01/15 09:44:02;;;;;;;0.30;0.30;;;;;;;;;;5064419;28;20232;-60
2023/01/15 09:46:34;;;;;;;1.27;0.30;;;;;;;;;;5074396;28;20435;-60
2023/01/15 09:49:06;;;;;;;0.30;0.30;;;;;;;;;;5076410;28;20558;-59
2023/01/15 09:51:36;;;;;;;0.30;0.30;;;;;;;;;;5073888;28;20200;-59
2023/01/15 09:54:11;;;;;;;0.40;0.40;;;;;;;;;;5072860;28;20430;-60
2023/01/15 09:56:38;;;;;;;0.40;0.40;;;;;;;;;;5075344;28;20195;-60
2023/01/15 09:59:09;;;;;;;0.40;0.40;;;;;;;;;;5075989;28;20234;-60
2023/01/15 10:01:37;;;;;;;0.95;0.50;;;;;;;;;;5072912;28;20201;-59
2023/01/15 10:04:06;;;;;;;0.40;0.40;;;;;;;;;;5072748;28;20197;-59
2023/01/15 10:06:33;;;;;;;0.52;0.52;;;;;;;;;;5073622;28;20207;-59
2023/01/15 10:09:04;;;;;;;0.73;0.73;;;;;;;;;;5075837;28;20428;-58
2023/01/15 10:14:29;;;;;;;0.30;0.30;;;;;;;;;;5072316;28;20388;-59
2023/01/15 10:16:56;;;;;;;0.52;0.52;;;;;;;;;;5075809;28;20200;-59
2023/01/15 10:19:23;;;;;;;1.85;0.60;;;;;;;;;;5074744;28;20216;-57
2023/01/15 10:21:55;;;;;;;0.40;0.40;;;;;;;;;;5071817;28;20219;-58
2023/01/15 10:24:26;;;;;;;0.70;0.65;;;;;;;;;;5072499;28;20219;-60
2023/01/15 10:26:54;;;;;;;0.95;0.60;;;;;;;;;;5075604;28;20219;-59
2023/01/15 10:29:23;;;;;;;1.00;1.00;;;;;;;;;;5075038;28;20231;-59
2023/01/15 10:31:51;;;;;;;0.77;0.77;;;;;;;;;;5072256;28;20197;-61
2023/01/15 10:34:39;;;;;;;4.35;3.85;;;;;;;;;;5072078;28;20394;-61
2023/01/15 10:37:08;;;;;;;0.77;0.77;;;;;;;;;;5075827;28;20200;-61
2023/01/15 10:39:39;;;;;;;0.77;0.77;;;;;;;;;;5073262;28;20196;-61
2023/01/15 10:42:11;;;;;;;0.95;0.95;;;;;;;;;;5071945;28;20205;-61
2023/01/15 10:44:43;;;;;;;0.75;0.75;;;;;;;;;;5074665;28;20205;-61
2023/01/15 10:47:12;;;;;;;0.70;0.70;;;;;;;;;;5075342;28;20515;-61
2023/01/15 10:49:41;;;;;;;0.60;0.60;;;;;;;;;;5072368;28;20527;-58
2023/01/15 10:52:11;;;;;;;0.70;0.70;;;;;;;;;;5071531;28;20200;-58
2023/01/15 10:54:40;;;;;;;0.40;0.40;;;;;;;;;;5074390;28;20201;-59
2023/01/15 10:57:10;;;;;;;0.70;0.70;;;;;;;;;;5075500;28;20440;-61
2023/01/15 10:59:39;;;;;;;0.85;0.70;;;;;;;;;;5072214;28;20196;-58
2023/01/15 11:02:15;;;;;;;0.75;0.70;;;;;;;;;;5071336;28;20208;-61
2023/01/15 11:04:42;;;;;;;0.60;0.60;;;;;;;;;;5074844;28;20203;-58
2023/01/15 11:07:09;;;;;;;0.50;0.50;;;;;;;;;;5075058;28;20200;-57
2023/01/15 11:09:36;;;;;;;0.60;0.60;;;;;;;;;;5072076;28;20212;-58
2023/01/15 11:20:25;;;;;;;0.30;0.30;;;;;;;;;;5073914;28;20241;-61
2023/01/15 11:22:52;;;;;;;0.40;0.40;;;;;;;;;;5071555;28;20400;-61
2023/01/15 11:25:27;;;;;;;0.40;0.40;;;;;;;;;;5071246;28;20389;-61
2023/01/15 11:27:53;;;;;;;0.30;0.30;;;;;;;;;;5074551;28;20215;-59
2023/01/15 11:30:26;;;;;;;0.50;0.50;;;;;;;;;;5073934;28;20299;-59
2023/01/15 11:32:54;;;;;;;0.50;0.50;;;;;;;;;;5071324;28;20505;-59
2023/01/15 11:35:21;;;;;;;0.75;0.47;;;;;;;;;;5071450;28;20201;-59
2023/01/15 11:37:48;;;;;;;0.55;0.55;;;;;;;;;;5074443;28;20504;-59
2023/01/15 11:40:16;;;;;;;1.98;1.30;;;;;;;;;;5074296;28;20388;-59
2023/01/15 11:51:01;;;;;;;0.63;0.63;;;;;;;;;;5062231;28;20224;-57
2023/01/15 11:53:32;;;;;;;0.40;0.40;;;;;;;;;;5071908;28;20243;-59
2023/01/15 11:56:00;;;;;;;0.50;0.50;;;;;;;;;;5074231;28;20204;-58
2023/01/15 11:58:27;;;;;;;0.50;0.50;;;;;;;;;;5072883;28;20206;-58
2023/01/15 12:00:55;;;;;;;1.42;0.85;;;;;;;;;;5070396;28;20200;-58
2023/01/15 12:03:23;;;;;;;1.08;0.98;;;;;;;;;;5070801;28;20207;-58
2023/01/15 12:05:54;;;;;;;0.60;0.60;;;;;;;;;;5073940;28;20503;-58
2023/01/15 12:08:25;;;;;;;0.70;0.70;;;;;;;;;;5073518;28;20236;-59
2023/01/15 12:11:06;;;;;;;0.60;0.60;;;;;;;;;;5070557;28;20213;-59
2023/01/15 12:13:37;;;;;;;1.10;1.00;;;;;;;;;;5072712;28;20224;-58
2023/01/15 12:16:07;;;;;;;0.40;0.40;;;;;;;;;;5074015;28;20204;-58
2023/01/15 12:18:47;;;;;;;0.50;0.50;;;;;;;;;;5072023;28;20272;-59
2023/01/15 12:21:21;;;;;;;0.50;0.50;;;;;;;;;;5070316;28;20196;-57
2023/01/15 12:23:54;;;;;;;0.90;0.90;;;;;;;;;;5070389;28;20205;-59
2023/01/15 12:26:24;;;;;;;1.00;0.40;;;;;;;;;;5070320;28;20398;-59
2023/01/15 12:28:53;;;;;;;5.07;2.85;;;;;;;;;;5073161;28;20216;-59
2023/01/15 12:31:22;;;;;;;2.10;1.83;;;;;;;;;;5073130;28;20231;-59
2023/01/15 12:33:52;;;;;;;3.35;3.05;;;;;;;;;;5070295;28;20424;-59
2023/01/15 12:36:19;;;;;;;1.17;1.17;;;;;;;;;;5070289;28;20562;-59
2023/01/15 12:38:48;;;;;;;1.70;1.38;;;;;;;;;;5070269;28;20204;-59
2023/01/15 12:41:15;;;;;;;1.27;0.40;;;;;;;;;;5069916;28;20442;-59
2023/01/15 12:46:30;;;;;;;0.63;0.43;;;;;;;;;;5072004;28;20245;-59
2023/01/15 12:49:02;;;;;;;0.57;0.57;;;;;;;;;;5070055;28;20205;-59
2023/01/15 12:51:32;;;;;;;0.30;0.30;;;;;;;;;;5071096;28;20217;-59
2023/01/15 12:54:03;;;;;;;0.40;0.40;;;;;;;;;;5073474;28;20200;-58
2023/01/15 12:56:30;;;;;;;1.10;1.00;;;;;;;;;;5071772;28;20192;-58
2023/01/15 12:59:02;;;;;;;0.40;0.40;;;;;;;;;;5070072;28;20196;-59
2023/01/15 13:01:31;;;;;;;0.35;0.35;;;;;;;;;;5071216;28;20197;-59
2023/01/15 13:04:02;;;;;;;0.57;0.50;;;;;;;;;;5073308;28;20200;-59
2023/01/15 13:06:28;;;;;;;0.52;0.52;;;;;;;;;;5072012;28;20429;-59
2023/01/15 13:08:57;;;;;;;0.95;0.63;;;;;;;;;;5069814;28;20201;-59
2023/01/15 13:11:24;;;;;;;1.20;0.45;;;;;;;;;;5070166;28;20224;-59
2023/01/15 13:13:57;;;;;;;0.40;0.40;;;;;;;;;;5073244;28;20203;-59
2023/01/15 13:16:28;;;;;;;0.50;0.50;;;;;;;;;;5072558;28;20207;-60
2023/01/15 13:19:03;;;;;;;2.20;1.00;;;;;;;;;;5069849;28;20220;-59
2023/01/15 13:21:32;;;;;;;1.85;1.35;;;;;;;;;;5070899;28;20492;-59
2023/01/15 13:24:19;;;;;;;2.35;1.48;;;;;;;;;;5067508;28;20212;-59
2023/01/15 13:26:51;;;;;;;2.75;0.68;;;;;;;;;;5067548;28;20235;-59
2023/01/15 13:29:25;;;;;;;0.70;0.70;;;;;;;;;;5069234;28;20221;-58
2023/01/15 13:31:57;;;;;;;0.70;0.70;;;;;;;;;;5068991;28;20217;-58
2023/01/15 13:34:26;;;;;;;0.70;0.70;;;;;;;;;;5069893;28;20201;-58
2023/01/15 13:36:53;;;;;;;0.88;0.60;;;;;;;;;;5072983;28;20268;-59
2023/01/15 13:39:21;;;;;;;0.50;0.50;;;;;;;;;;5072570;28;20527;-59
2023/01/15 13:44:34;;;;;;;0.50;0.50;;;;;;;;;;5074367;28;20204;-59
2023/01/15 13:47:04;;;;;;;0.65;0.60;;;;;;;;;;5076379;28;20221;-60
2023/01/15 13:49:33;;;;;;;0.60;0.60;;;;;;;;;;5074563;28;20518;-60
2023/01/15 13:52:03;;;;;;;0.40;0.40;;;;;;;;;;5072389;28;20220;-60
2023/01/15 13:54:30;;;;;;;0.77;0.57;;;;;;;;;;5073769;28;20201;-60
2023/01/15 13:57:06;;;;;;;0.40;0.40;;;;;;;;;;5076074;28;20208;-60
2023/01/15 13:59:38;;;;;;;0.75;0.50;;;;;;;;;;5075706;28;20207;-60
2023/01/15 14:02:20;;;;;;;1.85;0.80;;;;;;;;;;5075639;28;20193;-60
2023/01/15 14:04:46;;;;;;;2.35;0.55;;;;;;;;;;5072375;28;20197;-60
2023/01/15 14:07:17;;;;;;;0.88;0.60;;;;;;;;;;5072294;28;20209;-60
2023/01/15 14:09:44;;;;;;;3.58;0.60;;;;;;;;;;5075714;28;20373;-60
2023/01/15 14:12:15;;;;;;;0.85;0.50;;;;;;;;;;5075538;28;20224;-60
2023/01/15 14:14:53;;;;;;;1.75;0.50;;;;;;;;;;5072686;28;20535;-60
2023/01/15 14:17:47;;;;;;;0.52;0.52;;;;;;;;;;5072156;28;20619;-60
2023/01/15 14:20:22;;;;;;;0.43;0.43;;;;;;;;;;5029006;28;20423;-60
2023/01/15 14:22:57;;;;;;;2.05;0.70;;;;;;;;;;5071780;28;20201;-60
2023/01/15 14:25:29;;;;;;;0.73;0.70;;;;;;;;;;5071820;28;20208;-60
2023/01/15 14:28:07;;;;;;;0.45;0.45;;;;;;;;;;5074531;28;20593;-60
2023/01/15 14:30:47;;;;;;;2.22;0.88;;;;;;;;;;5072542;28;20557;-60
2023/01/15 14:33:18;;;;;;;0.80;0.80;;;;;;;;;;5071756;28;20209;-60
2023/01/15 14:35:47;;;;;;;0.70;0.65;;;;;;;;;;5075122;28;20204;-60
2023/01/15 14:38:16;;;;;;;0.95;0.50;;;;;;;;;;5075095;28;20200;-60
2023/01/15 14:40:51;;;;;;;1.75;0.60;;;;;;;;;;5072093;28;20350;-60
2023/01/15 14:43:18;;;;;;;1.65;0.73;;;;;;;;;;5071909;28;20539;-60
2023/01/15 14:45:47;;;;;;;3.20;0.82;;;;;;;;;;5074673;28;20192;-60
2023/01/15 14:48:18;;;;;;;1.65;0.80;;;;;;;;;;5075315;28;20504;-60
2023/01/15 14:50:46;;;;;;;1.05;0.50;;;;;;;;;;5071385;28;20215;-60
2023/01/15 14:53:35;;;;;;;0.70;0.70;;;;;;;;;;5071915;28;20247;-60
2023/01/15 14:56:11;;;;;;;1.05;0.80;;;;;;;;;;5070146;28;20201;-60
2023/01/15 14:58:45;;;;;;;2.30;0.63;;;;;;;;;;5080222;28;20390;-60
2023/01/15 15:01:17;;;;;;;3.15;1.08;;;;;;;;;;5071392;28;20240;-60
2023/01/15 15:03:46;;;;;;;1.30;0.85;;;;;;;;;;5074760;28;20200;-60
2023/01/15 15:06:14;;;;;;;3.33;2.20;;;;;;;;;;5075439;28;20200;-60
2023/01/15 15:08:42;;;;;;;2.75;2.33;;;;;;;;;;5072201;28;20212;-60
2023/01/15 15:12:17;;;;;;;6.70;3.70;;;;;;;;;;5071230;28;20540;-60
2023/01/15 15:14:03;;;;;;;2.33;0.80;;;;;;;;;;5077382;28;20197;-60
2023/01/15 15:16:31;;;;;;;0.82;0.77;;;;;;;;;;5072623;28;20447;-60
2023/01/15 15:19:00;;;;;;;3.35;0.85;;;;;;;;;;5074815;28;20204;-60
2023/01/15 15:21:29;;;;;;;2.75;0.95;;;;;;;;;;5073621;28;20196;-60
2023/01/15 15:23:57;;;;;;;1.98;0.75;;;;;;;;;;5071235;28;20204;-60
2023/01/15 15:26:25;;;;;;;2.03;0.98;;;;;;;;;;5071365;28;20209;-59
2023/01/15 15:28:58;;;;;;;1.05;0.80;;;;;;;;;;5074577;28;20257;-60
2023/01/15 15:31:27;;;;;;;3.85;1.23;;;;;;;;;;5073638;28;20535;-60
2023/01/15 15:33:54;;;;;;;2.78;1.00;;;;;;;;;;5071171;28;20203;-60
2023/01/15 15:36:21;;;;;;;6.28;1.50;;;;;;;;;;5070946;28;20200;-60
2023/01/15 15:38:53;;;;;;;1.38;0.93;;;;;;;;;;5070813;28;20197;-60
2023/01/15 15:48:40;;;;;;;1.13;0.63;;;;;;;;;;5070931;28;20198;-60
2023/01/15 15:49:38;;;;;;;1.20;1.10;;;;;;;;;;5072894;28;20208;-60